createdAt,value
2022-10-22T00:00:21.626Z,9.71
2022-10-22T00:02:52.713Z,9.74
2022-10-22T00:05:23.753Z,9.74
2022-10-22T00:07:54.760Z,9.73
2022-10-22T00:10:25.722Z,9.72
2022-10-22T00:12:56.619Z,9.73
2022-10-22T00:15:27.618Z,9.74
2022-10-22T00:17:58.614Z,9.77
2022-10-22T00:20:29.494Z,9.79
2022-10-22T00:23:00.443Z,9.81
2022-10-22T00:25:31.337Z,9.82
2022-10-22T00:28:02.270Z,9.81
2022-10-22T00:30:34.282Z,9.77
2022-10-22T00:33:05.254Z,9.77
2022-10-22T00:35:36.918Z,9.77
2022-10-22T00:38:07.843Z,9.78
2022-10-22T00:40:38.680Z,9.79
2022-10-22T00:43:12.300Z,9.80
2022-10-22T00:45:43.645Z,9.80
2022-10-22T00:48:17.664Z,9.79
2022-10-22T00:50:52.064Z,9.79
2022-10-22T00:53:26.403Z,9.79
2022-10-22T00:55:57.567Z,9.80
2022-10-22T00:58:31.944Z,9.81
2022-10-22T01:01:03.264Z,9.82
2022-10-22T01:03:34.364Z,9.85
2022-10-22T01:06:07.247Z,9.87
2022-10-22T01:08:44.370Z,9.89
2022-10-22T01:11:23.358Z,9.92
2022-10-22T01:14:02.138Z,9.95
2022-10-22T01:16:43.262Z,9.99
2022-10-22T01:19:32.433Z,10.01
2022-10-22T01:22:11.046Z,10.01
2022-10-22T01:24:53.444Z,10.01
2022-10-22T01:27:31.777Z,10.03
2022-10-22T01:30:06.943Z,10.05
2022-10-22T01:32:39.141Z,10.07
2022-10-22T01:35:13.535Z,10.07
2022-10-22T01:37:48.627Z,10.06
2022-10-22T01:40:21.224Z,10.05
2022-10-22T01:43:00.776Z,10.05
2022-10-22T01:45:34.714Z,10.06
2022-10-22T01:48:14.629Z,10.07
2022-10-22T01:51:02.268Z,10.09
2022-10-22T01:53:42.658Z,10.12
2022-10-22T01:56:36.359Z,10.14
2022-10-22T01:59:16.571Z,10.15
2022-10-22T02:01:58.501Z,10.15
2022-10-22T02:04:35.417Z,10.17
2022-10-22T02:07:12.015Z,10.19
2022-10-22T02:09:44.621Z,10.20
2022-10-22T02:12:17.651Z,10.19
2022-10-22T02:14:50.439Z,10.19
2022-10-22T02:17:23.169Z,10.20
2022-10-22T02:19:58.795Z,10.21
2022-10-22T02:22:31.005Z,10.23
2022-10-22T02:25:01.941Z,10.22
2022-10-22T02:27:38.039Z,10.23
2022-10-22T02:30:12.697Z,10.22
2022-10-22T02:32:50.861Z,10.22
2022-10-22T02:35:24.419Z,10.24
2022-10-22T02:37:57.664Z,10.25
2022-10-22T02:40:29.904Z,10.23
2022-10-22T02:43:01.023Z,10.22
2022-10-22T02:45:32.259Z,10.20
2022-10-22T02:48:03.531Z,10.18
2022-10-22T02:50:34.806Z,10.19
2022-10-22T02:53:05.626Z,10.19
2022-10-22T02:55:36.553Z,10.18
2022-10-22T02:58:07.372Z,10.19
2022-10-22T03:00:38.397Z,10.21
2022-10-22T03:03:09.751Z,10.22
2022-10-22T03:05:41.234Z,10.22
2022-10-22T03:08:12.111Z,10.19
2022-10-22T03:10:42.949Z,10.19
2022-10-22T03:13:13.776Z,10.18
2022-10-22T03:15:44.890Z,10.19
2022-10-22T03:18:15.804Z,10.19
2022-10-22T03:20:47.146Z,10.19
2022-10-22T03:23:20.913Z,10.22
2022-10-22T03:25:52.487Z,10.22
2022-10-22T03:28:23.316Z,10.23
2022-10-22T03:30:54.225Z,10.23
2022-10-22T03:33:25.192Z,10.24
2022-10-22T03:35:56.262Z,10.27
2022-10-22T03:38:27.562Z,10.29
2022-10-22T03:40:58.765Z,10.30
2022-10-22T03:43:30.116Z,10.31
2022-10-22T03:46:01.117Z,10.29
2022-10-22T03:48:32.211Z,10.29
2022-10-22T03:51:03.136Z,10.30
2022-10-22T03:53:33.974Z,10.30
2022-10-22T03:56:08.796Z,10.30
2022-10-22T03:58:40.603Z,10.32
2022-10-22T04:01:13.473Z,10.31
2022-10-22T04:03:44.374Z,10.29
2022-10-22T04:06:16.131Z,10.28
2022-10-22T04:08:47.729Z,10.28
2022-10-22T04:11:19.024Z,10.28
2022-10-22T04:13:49.974Z,10.29
2022-10-22T04:16:25.076Z,10.29
2022-10-22T04:18:59.032Z,10.29
2022-10-22T04:21:29.856Z,10.30
2022-10-22T04:24:00.698Z,10.31
2022-10-22T04:26:31.615Z,10.33
2022-10-22T04:29:02.609Z,10.34
2022-10-22T04:31:33.457Z,10.34
2022-10-22T04:34:04.738Z,10.34
2022-10-22T04:36:36.550Z,10.37
2022-10-22T04:39:08.051Z,10.38
2022-10-22T04:41:40.443Z,10.40
2022-10-22T04:44:13.875Z,10.42
2022-10-22T04:46:47.538Z,10.42
2022-10-22T04:49:18.721Z,10.40
2022-10-22T04:51:49.673Z,10.40
2022-10-22T04:54:20.596Z,10.42
2022-10-22T04:56:51.633Z,10.42
2022-10-22T04:59:22.611Z,10.43
2022-10-22T05:01:53.704Z,10.44
2022-10-22T05:04:24.628Z,10.45
2022-10-22T05:06:55.575Z,10.48
2022-10-22T05:09:26.884Z,10.51
2022-10-22T05:11:57.770Z,10.53
2022-10-22T05:14:28.823Z,10.55
2022-10-22T05:16:59.843Z,10.56
2022-10-22T05:19:32.313Z,10.56
2022-10-22T05:22:05.649Z,10.57
2022-10-22T05:24:38.070Z,10.59
2022-10-22T05:27:09.040Z,10.62
2022-10-22T05:29:40.218Z,10.64
2022-10-22T05:32:10.984Z,10.65
2022-10-22T05:34:42.014Z,10.68
2022-10-22T05:37:12.880Z,10.70
2022-10-22T05:39:43.717Z,10.71
2022-10-22T05:42:14.963Z,10.72
2022-10-22T05:44:46.387Z,10.75
2022-10-22T05:47:17.171Z,10.75
2022-10-22T05:49:48.023Z,10.76
2022-10-22T05:52:18.952Z,10.77
2022-10-22T05:54:49.903Z,10.82
2022-10-22T05:57:20.839Z,10.84
2022-10-22T05:59:51.723Z,10.89
2022-10-22T06:02:22.665Z,10.93
2022-10-22T06:04:53.511Z,10.93
2022-10-22T06:07:24.951Z,10.96
2022-10-22T06:09:56.194Z,11.01
2022-10-22T06:12:27.498Z,11.05
2022-10-22T06:15:05.252Z,11.08
2022-10-22T06:17:36.049Z,11.11
2022-10-22T06:20:08.332Z,11.13
2022-10-22T06:22:40.004Z,11.15
2022-10-22T06:25:12.610Z,11.19
2022-10-22T06:27:43.540Z,11.21
2022-10-22T06:30:15.754Z,11.23
2022-10-22T06:32:46.642Z,11.26
2022-10-22T06:35:17.679Z,11.28
2022-10-22T06:37:48.810Z,11.31
2022-10-22T06:40:19.860Z,11.33
2022-10-22T06:42:50.720Z,11.37
2022-10-22T06:45:21.626Z,11.39
2022-10-22T06:47:53.733Z,11.41
2022-10-22T06:50:25.022Z,11.44
2022-10-22T06:52:56.201Z,11.45
2022-10-22T06:55:27.507Z,11.46
2022-10-22T06:57:58.973Z,11.48
2022-10-22T07:00:29.902Z,11.49
2022-10-22T07:03:02.962Z,11.49
2022-10-22T07:05:36.809Z,11.48
2022-10-22T07:08:08.379Z,11.49
2022-10-22T07:10:39.241Z,11.48
2022-10-22T07:13:11.371Z,11.46
2022-10-22T07:15:42.160Z,11.46
2022-10-22T07:18:13.006Z,11.46
2022-10-22T07:20:43.833Z,11.46
2022-10-22T07:23:14.649Z,11.43
2022-10-22T07:25:45.806Z,11.44
2022-10-22T07:28:16.763Z,11.45
2022-10-22T07:30:48.016Z,11.46
2022-10-22T07:33:18.996Z,11.46
2022-10-22T07:35:49.833Z,11.49
2022-10-22T07:38:20.745Z,11.51
2022-10-22T07:40:51.722Z,11.54
2022-10-22T07:43:22.618Z,11.58
2022-10-22T07:45:56.403Z,11.61
2022-10-22T07:48:27.342Z,11.66
2022-10-22T07:50:58.952Z,11.70
2022-10-22T07:53:29.859Z,11.73
2022-10-22T07:56:01.306Z,11.75
2022-10-22T07:58:32.775Z,11.78
2022-10-22T08:01:05.920Z,11.80
2022-10-22T08:03:37.077Z,11.82
2022-10-22T08:06:08.818Z,11.84
2022-10-22T08:08:40.290Z,11.85
2022-10-22T08:11:12.661Z,11.87
2022-10-22T08:13:45.545Z,11.89
2022-10-22T08:16:16.974Z,11.91
2022-10-22T08:18:48.159Z,11.95
2022-10-22T08:21:19.096Z,11.99
2022-10-22T08:23:49.938Z,12.04
2022-10-22T08:26:20.968Z,12.07
2022-10-22T08:28:51.924Z,12.10
2022-10-22T08:31:22.695Z,12.12
2022-10-22T08:33:53.510Z,12.13
2022-10-22T08:36:24.623Z,12.13
2022-10-22T08:38:55.455Z,12.13
2022-10-22T08:41:27.284Z,12.14
2022-10-22T08:44:16.921Z,12.15
2022-10-22T08:47:03.910Z,12.17
2022-10-22T08:49:39.829Z,12.21
2022-10-22T08:52:17.327Z,12.26
2022-10-22T08:54:54.459Z,12.31
2022-10-22T08:57:50.011Z,12.37
2022-10-22T09:00:29.157Z,12.40
2022-10-22T09:03:13.192Z,12.44
2022-10-22T09:08:28.179Z,12.47
2022-10-22T09:11:03.897Z,12.50
2022-10-22T09:13:34.764Z,12.54
2022-10-22T09:16:17.570Z,12.57
2022-10-22T09:19:00.383Z,12.60
2022-10-22T09:21:44.714Z,12.64
2022-10-22T09:24:22.626Z,12.65
2022-10-22T09:26:53.842Z,12.68
2022-10-22T09:29:32.901Z,12.70
2022-10-22T09:32:03.946Z,12.74
2022-10-22T09:34:35.458Z,12.78
2022-10-22T09:37:09.250Z,12.80
2022-10-22T09:39:45.182Z,12.81
2022-10-22T09:42:18.600Z,12.80
2022-10-22T09:44:56.020Z,12.80
2022-10-22T09:47:43.613Z,12.80
2022-10-22T09:50:38.224Z,12.84
2022-10-22T09:53:18.838Z,12.88
2022-10-22T09:58:30.971Z,12.95
2022-10-22T10:01:03.853Z,12.97
2022-10-22T10:03:35.324Z,13.01
2022-10-22T10:06:07.358Z,13.06
2022-10-22T10:08:38.292Z,13.09
2022-10-22T10:11:17.666Z,13.14
2022-10-22T10:13:59.456Z,13.18
2022-10-22T10:16:41.830Z,13.23
2022-10-22T10:19:25.931Z,13.27
2022-10-22T10:22:08.994Z,13.29
2022-10-22T10:24:57.283Z,13.31
2022-10-22T10:27:35.131Z,13.32
2022-10-22T10:30:11.775Z,13.32
2022-10-22T10:32:58.749Z,13.32
2022-10-22T10:35:36.292Z,13.33
2022-10-22T10:38:24.744Z,13.33
2022-10-22T10:41:05.357Z,13.34
2022-10-22T10:43:45.258Z,13.36
2022-10-22T10:46:25.496Z,13.37
2022-10-22T10:49:00.559Z,13.37
2022-10-22T10:51:43.870Z,13.36
2022-10-22T10:54:32.829Z,13.37
2022-10-22T10:57:12.312Z,13.37
2022-10-22T10:59:55.837Z,13.35
2022-10-22T11:03:00.220Z,13.35
2022-10-22T11:05:39.252Z,13.35
2022-10-22T11:08:16.354Z,13.34
2022-10-22T11:10:50.903Z,13.33
2022-10-22T11:13:29.259Z,13.31
2022-10-22T11:16:06.693Z,13.31
2022-10-22T11:18:42.488Z,13.32
2022-10-22T11:21:22.853Z,13.33
2022-10-22T11:24:02.186Z,13.35
2022-10-22T11:26:40.218Z,13.35
2022-10-22T11:29:16.219Z,13.36
2022-10-22T11:31:48.695Z,13.36
2022-10-22T11:34:38.356Z,13.37
2022-10-22T11:37:11.980Z,13.38
2022-10-22T11:39:46.927Z,13.38
2022-10-22T11:42:23.123Z,13.40
2022-10-22T11:45:04.565Z,13.41
2022-10-22T11:47:43.147Z,13.43
2022-10-22T11:50:27.960Z,13.44
2022-10-22T11:53:05.403Z,13.45
2022-10-22T11:55:49.061Z,13.46
2022-10-22T11:58:42.923Z,13.47
2022-10-22T12:01:26.032Z,13.49
2022-10-22T12:04:22.000Z,13.52
2022-10-22T12:07:03.314Z,13.55
2022-10-22T12:09:41.520Z,13.58
2022-10-22T12:12:17.693Z,13.62
2022-10-22T12:14:59.366Z,13.65
2022-10-22T12:17:32.406Z,13.67
2022-10-22T12:20:09.643Z,13.71
2022-10-22T12:22:41.457Z,13.75
2022-10-22T12:25:22.259Z,13.79
2022-10-22T12:27:57.308Z,13.82
2022-10-22T12:30:30.756Z,13.85
2022-10-22T12:33:03.536Z,13.88
2022-10-22T12:35:36.732Z,13.92
2022-10-22T12:38:16.067Z,13.93
2022-10-22T12:40:48.848Z,13.93
2022-10-22T12:43:25.252Z,13.95
2022-10-22T12:45:57.780Z,13.96
2022-10-22T12:48:34.436Z,13.96
2022-10-22T12:51:08.239Z,13.96
2022-10-22T12:53:44.410Z,13.94
2022-10-22T12:56:17.399Z,13.94
2022-10-22T12:58:53.454Z,13.93
2022-10-22T13:01:26.925Z,13.92
2022-10-22T13:04:21.537Z,13.91
2022-10-22T13:06:54.655Z,13.90
2022-10-22T13:09:27.929Z,13.90
2022-10-22T13:12:05.497Z,13.90
2022-10-22T13:14:38.666Z,13.90
2022-10-22T13:17:13.351Z,13.90
2022-10-22T13:19:48.039Z,13.91
2022-10-22T13:22:36.596Z,13.92
2022-10-22T13:25:26.924Z,13.91
2022-10-22T13:27:59.583Z,13.89
2022-10-22T13:30:32.987Z,13.87
2022-10-22T13:33:05.796Z,13.85
2022-10-22T13:35:39.468Z,13.83
2022-10-22T13:38:16.657Z,13.80
2022-10-22T13:40:48.009Z,13.76
2022-10-22T13:43:20.067Z,13.71
2022-10-22T13:45:54.401Z,13.67
2022-10-22T13:48:27.596Z,13.64
2022-10-22T13:50:58.542Z,13.62
2022-10-22T13:53:31.483Z,13.59
2022-10-22T13:56:02.324Z,13.58
2022-10-22T13:58:33.281Z,13.57
2022-10-22T14:01:08.921Z,13.57
2022-10-22T14:03:40.479Z,13.55
2022-10-22T14:06:15.748Z,13.54
2022-10-22T14:08:50.637Z,13.54
2022-10-22T14:11:21.542Z,13.54
2022-10-22T14:13:52.328Z,13.55
2022-10-22T14:16:26.180Z,13.56
2022-10-22T14:18:58.339Z,13.57
2022-10-22T14:21:37.282Z,13.58
2022-10-22T14:24:13.000Z,13.58
2022-10-22T14:26:44.519Z,13.60
2022-10-22T14:29:15.908Z,13.61
2022-10-22T14:31:47.267Z,13.62
2022-10-22T14:34:18.728Z,13.62
2022-10-22T14:36:49.565Z,13.62
2022-10-22T14:39:21.742Z,13.61
2022-10-22T14:41:52.555Z,13.60
2022-10-22T14:44:24.294Z,13.58
2022-10-22T14:46:56.426Z,13.57
2022-10-22T14:49:27.232Z,13.56
2022-10-22T14:51:58.083Z,13.56
2022-10-22T14:54:28.920Z,13.55
2022-10-22T14:56:59.761Z,13.55
2022-10-22T14:59:31.193Z,13.55
2022-10-22T15:02:02.089Z,13.55
2022-10-22T15:04:33.476Z,13.54
2022-10-22T15:07:04.301Z,13.54
2022-10-22T15:09:35.157Z,13.54
2022-10-22T15:12:06.537Z,13.54
2022-10-22T15:14:37.400Z,13.55
2022-10-22T15:17:08.196Z,13.55
2022-10-22T15:19:39.066Z,13.55
2022-10-22T15:22:10.030Z,13.55
2022-10-22T15:24:43.890Z,13.55
2022-10-22T15:27:14.777Z,13.57
2022-10-22T15:29:45.660Z,13.57
2022-10-22T15:32:16.673Z,13.58
2022-10-22T15:34:47.499Z,13.59
2022-10-22T15:37:18.372Z,13.61
2022-10-22T15:39:49.605Z,13.62
2022-10-22T15:42:20.558Z,13.62
2022-10-22T15:44:58.097Z,13.63
2022-10-22T15:47:31.205Z,13.65
2022-10-22T15:50:02.080Z,13.65
2022-10-22T15:52:33.687Z,13.64
2022-10-22T15:55:07.096Z,13.65
2022-10-22T15:57:38.053Z,13.64
2022-10-22T16:00:11.201Z,13.65
2022-10-22T16:02:46.131Z,13.65
2022-10-22T16:05:17.155Z,13.66
2022-10-22T16:07:47.998Z,13.67
2022-10-22T16:10:18.961Z,13.67
2022-10-22T16:12:51.627Z,13.66
2022-10-22T16:15:22.553Z,13.67
2022-10-22T16:17:54.282Z,13.66
2022-10-22T16:20:25.174Z,13.67
2022-10-22T16:22:56.135Z,13.65
2022-10-22T16:25:27.060Z,13.64
2022-10-22T16:27:57.866Z,13.62
2022-10-22T16:30:28.721Z,13.64
2022-10-22T16:33:00.864Z,13.63
2022-10-22T16:35:33.570Z,13.63
2022-10-22T16:38:04.479Z,13.63
2022-10-22T16:40:35.337Z,13.62
2022-10-22T16:43:06.397Z,13.62
2022-10-22T16:45:37.268Z,13.62
2022-10-22T16:48:08.575Z,13.62
2022-10-22T16:50:41.560Z,13.60
2022-10-22T16:53:13.023Z,13.58
2022-10-22T16:55:44.154Z,13.57
2022-10-22T16:58:14.991Z,13.58
2022-10-22T17:00:46.171Z,13.58
2022-10-22T17:03:17.093Z,13.59
2022-10-22T17:05:47.913Z,13.60
2022-10-22T17:08:20.000Z,13.61
2022-10-22T17:10:56.765Z,13.61
2022-10-22T17:13:27.684Z,13.62
2022-10-22T17:16:05.121Z,13.62
2022-10-22T17:18:38.221Z,13.63
2022-10-22T17:21:11.150Z,13.64
2022-10-22T17:23:42.765Z,13.65
2022-10-22T17:26:17.856Z,13.66
2022-10-22T17:28:49.029Z,13.67
2022-10-22T17:31:24.920Z,13.68
2022-10-22T17:33:57.470Z,13.70
2022-10-22T17:36:33.395Z,13.70
2022-10-22T17:39:09.034Z,13.70
2022-10-22T17:41:40.275Z,13.69
2022-10-22T17:44:13.568Z,13.70
2022-10-22T17:46:45.736Z,13.70
2022-10-22T17:49:24.093Z,13.73
2022-10-22T17:51:55.124Z,13.73
2022-10-22T17:54:26.042Z,13.75
2022-10-22T17:56:57.067Z,13.74
2022-10-22T17:59:28.816Z,13.72
2022-10-22T18:02:02.259Z,13.72
2022-10-22T18:04:34.151Z,13.73
2022-10-22T18:07:05.060Z,13.73
2022-10-22T18:09:36.011Z,13.74
2022-10-22T18:12:07.594Z,13.74
2022-10-22T18:14:38.879Z,13.75
2022-10-22T18:17:11.217Z,13.75
2022-10-22T18:19:42.144Z,13.77
2022-10-22T18:22:12.959Z,13.78
2022-10-22T18:24:44.358Z,13.80
2022-10-22T18:27:15.246Z,13.82
2022-10-22T18:29:47.230Z,13.82
2022-10-22T18:32:18.145Z,13.83
2022-10-22T18:34:49.357Z,13.83
2022-10-22T18:37:20.439Z,13.82
2022-10-22T18:39:52.052Z,13.83
2022-10-22T18:42:23.951Z,13.85
2022-10-22T18:44:56.384Z,13.85
2022-10-22T18:47:27.128Z,13.86
2022-10-22T18:49:57.986Z,13.87
2022-10-22T18:52:28.828Z,13.89
2022-10-22T18:54:59.756Z,13.90
2022-10-22T18:57:30.607Z,13.91
2022-10-22T19:00:01.559Z,13.92
2022-10-22T19:02:32.501Z,13.92
2022-10-22T19:05:03.358Z,13.93
2022-10-22T19:07:34.185Z,13.93
2022-10-22T19:10:05.794Z,13.95
2022-10-22T19:12:37.023Z,13.97
2022-10-22T19:15:09.317Z,13.98
2022-10-22T19:17:40.466Z,13.98
2022-10-22T19:20:12.961Z,13.98
2022-10-22T19:22:43.822Z,14.00
2022-10-22T19:25:14.681Z,14.01
2022-10-22T19:27:45.654Z,14.01
2022-10-22T19:30:17.294Z,14.02
2022-10-22T19:32:48.833Z,14.02
2022-10-22T19:35:19.983Z,14.03
2022-10-22T19:37:52.164Z,14.05
2022-10-22T19:40:25.978Z,14.07
2022-10-22T19:42:56.950Z,14.08
2022-10-22T19:45:27.899Z,14.09
2022-10-22T19:47:58.671Z,14.09
2022-10-22T19:50:29.513Z,14.09
2022-10-22T19:53:01.522Z,14.11
2022-10-22T19:55:32.399Z,14.11
2022-10-22T19:58:03.320Z,14.11
2022-10-22T20:00:34.210Z,14.10
2022-10-22T20:03:05.221Z,14.08
2022-10-22T20:05:38.865Z,14.09
2022-10-22T20:08:09.805Z,14.08
2022-10-22T20:10:40.922Z,14.09
2022-10-22T20:13:11.758Z,14.10
2022-10-22T20:15:42.919Z,14.10
2022-10-22T20:18:13.907Z,14.09
2022-10-22T20:20:44.916Z,14.10
2022-10-22T20:23:15.745Z,14.10
2022-10-22T20:25:47.989Z,14.11
2022-10-22T20:28:19.149Z,14.13
2022-10-22T20:30:49.973Z,14.12
2022-10-22T20:33:20.811Z,14.12
2022-10-22T20:36:02.234Z,14.12
2022-10-22T20:38:33.168Z,14.12
2022-10-22T20:41:06.456Z,14.12
2022-10-22T20:43:37.369Z,14.14
2022-10-22T20:46:08.567Z,14.13
2022-10-22T20:48:41.103Z,14.13
2022-10-22T20:51:12.384Z,14.13
2022-10-22T20:53:43.304Z,14.13
2022-10-22T20:56:15.117Z,14.14
2022-10-22T20:58:48.588Z,14.15
2022-10-22T21:01:23.956Z,14.14
2022-10-22T21:03:55.543Z,14.13
2022-10-22T21:06:26.404Z,14.11
2022-10-22T21:08:57.243Z,14.10
2022-10-22T21:11:28.171Z,14.10
2022-10-22T21:13:59.279Z,14.10
2022-10-22T21:16:30.580Z,14.10
2022-10-22T21:19:01.867Z,14.10
2022-10-22T21:21:33.011Z,14.09
2022-10-22T21:24:03.856Z,14.09
2022-10-22T21:26:37.245Z,14.10
2022-10-22T21:29:08.737Z,14.09
2022-10-22T21:31:40.647Z,14.09
2022-10-22T21:34:13.028Z,14.09
2022-10-22T21:36:44.358Z,14.07
2022-10-22T21:39:17.094Z,14.06
2022-10-22T21:41:48.034Z,14.07
2022-10-22T21:44:19.102Z,14.08
2022-10-22T21:46:50.070Z,14.09
2022-10-22T21:49:21.026Z,14.10
2022-10-22T21:51:52.096Z,14.10
2022-10-22T21:54:22.902Z,14.10
2022-10-22T21:56:53.977Z,14.12
2022-10-22T21:59:24.998Z,14.12
2022-10-22T22:01:57.275Z,14.13
2022-10-22T22:04:28.352Z,14.12
2022-10-22T22:06:59.211Z,14.11
2022-10-22T22:09:30.014Z,14.13
2022-10-22T22:12:00.903Z,14.15
2022-10-22T22:14:33.015Z,14.15
2022-10-22T22:17:03.960Z,14.16
2022-10-22T22:19:34.856Z,14.15
2022-10-22T22:22:06.115Z,14.14
2022-10-22T22:24:37.609Z,14.15
2022-10-22T22:27:09.009Z,14.14
2022-10-22T22:29:41.065Z,14.14
2022-10-22T22:32:14.313Z,14.14
2022-10-22T22:34:45.289Z,14.16
2022-10-22T22:37:16.135Z,14.16
2022-10-22T22:39:47.173Z,14.17
2022-10-22T22:42:17.971Z,14.16
2022-10-22T22:44:48.864Z,14.15
2022-10-22T22:47:19.767Z,14.14
2022-10-22T22:49:50.718Z,14.12
2022-10-22T22:54:52.470Z,14.12
2022-10-22T22:57:23.355Z,14.12
2022-10-22T22:59:54.309Z,14.11
2022-10-22T23:02:25.440Z,14.10
2022-10-22T23:04:56.349Z,14.08
2022-10-22T23:07:27.350Z,14.06
2022-10-22T23:09:58.228Z,14.05
2022-10-22T23:12:29.513Z,14.05
2022-10-22T23:15:02.316Z,14.05
2022-10-22T23:17:33.293Z,14.06
2022-10-22T23:20:04.474Z,14.06
2022-10-22T23:22:35.297Z,14.06
2022-10-22T23:25:07.016Z,14.05
2022-10-22T23:27:37.851Z,14.03
2022-10-22T23:30:10.790Z,14.02
2022-10-22T23:32:41.701Z,14.00
2022-10-22T23:35:13.631Z,14.00
2022-10-22T23:37:44.635Z,13.99
2022-10-22T23:40:16.207Z,13.99
2022-10-22T23:42:47.050Z,13.99
2022-10-22T23:45:18.077Z,13.99
2022-10-22T23:47:48.963Z,13.99
2022-10-22T23:50:19.803Z,14.00
2022-10-22T23:52:52.016Z,13.99
2022-10-22T23:55:22.906Z,13.99
2022-10-22T23:57:53.774Z,13.99
